Kuwait City, Kuwait

6:18 PM AST on February 11, 2016 (GMT +0300)
Abdullah Al-Salem Area | | Change Station
CLOSE
Current Station
Personal Weather Station
Location: Abdullah Alsalem, KUWAIT
Elevation: 59 ft
Nearby Weather Stations

Elev 59 ft 29.36 °N, 47.99 °E | Updated 10 minutes ago

Mostly Cloudy
Mostly Cloudy
61.7 °F
Feels Like 61.7 °F
N
5.0
Wind Variable Wind from North
Gusts 17.0 mph

Today
High -- | Low -- °F
--% Chance of Precip.
Yesterday
High -- | Low -- °F
Precip. -- in
Pressure 30.15 in
Visibility 6.2 miles
Clouds Few 4000 ft
Mostly Cloudy 8000 ft
Dew Point 46 °F
Humidity 57%
Rainfall 0.04 in
Snow Depth Not available.
6:31 AM 5:33 PM
Waxing Crescent, 12% visible
METAR OKBK 111500Z 33017KT 9999 FEW040 BKN080 17/04 Q1021 NOSIG
Pressure 30.15 in
Visibility 6.2 miles
Clouds Few 4000 ft
Mostly Cloudy 8000 ft
Dew Point 46 °F
Humidity 57%
Rainfall 0.04 in
Snow Depth Not available.
6:31 AM 5:33 PM
Waxing Crescent, 12% visible
METAR OKBK 111500Z 33017KT 9999 FEW040 BKN080 17/04 Q1021 NOSIG

10-Day Weather Forecast

No radar image for this location.
×

Almanac

Astronomy

Feb. 11, 2016 Rise Set
Actual Time
Civil Twilight
Nautical Twilight
Astronomical Twilight
Moon
Length of Visible Light
Length of Day
Tomorrow will be .
, % of the Moon is Illuminated

Today's Extremes

Country Highs Country Lows

Community

WunderPhotos

Upload Photos

1,892,060 photos uploaded!

WunderBlog® & News

Nearby

Air Quality

  Air Quality AQ Index Pollutant
Not available.

Snow Depth

Station Depth Elevation

Earthquake Activity

City Distance Mag. Time & Date
Minimum magnitude displayed is 2.5.

Coastal Water Temperatures

Place Temperature

Stations

Nearby Weather Stations

Station Location Temp. Windchill Dew Point Humidity Wind Precip. Elev Updated Type